Time;durP1;ratioP1;P1;durP2;ratioP2;P2;SDS_P1;SDS_P2;PMS_P1;PMS_P2;Temp;Humidity;BMP_temperature;BMP_pressure;BME280_temperature;BME280_humidity;BME280_pressure;Samples;Min_cycle;Max_cycle;Signal;HPM_P1;HPM_P2
2023/12/02 00:01:55;;;;;;;13.30;10.13;;;-0.90;90.40;;;;;;4892840;29;20173;-74
2023/12/02 00:04:21;;;;;;;18.53;11.10;;;-0.90;90.60;;;;;;4875603;29;20258;-74
2023/12/02 00:06:46;;;;;;;18.57;11.33;;;-1.00;90.90;;;;;;4890839;29;20248;-75
2023/12/02 00:09:12;;;;;;;22.23;11.20;;;-1.00;90.80;;;;;;4891647;29;20183;-75
2023/12/02 00:11:38;;;;;;;20.07;11.70;;;-1.00;91.00;;;;;;4890816;29;20164;-75
2023/12/02 00:14:04;;;;;;;20.43;11.47;;;-1.00;90.60;;;;;;4892878;29;20494;-75
2023/12/02 00:16:29;;;;;;;24.33;12.33;;;-1.00;90.60;;;;;;4893099;29;20231;-74
2023/12/02 00:18:55;;;;;;;18.60;11.50;;;-0.90;90.30;;;;;;4892340;29;20444;-74
2023/12/02 00:21:21;;;;;;;17.60;11.27;;;-0.90;90.30;;;;;;4897048;29;20740;-75
2023/12/02 00:23:46;;;;;;;17.10;10.50;;;-0.90;90.10;;;;;;4893069;29;20283;-77
2023/12/02 00:26:14;;;;;;;15.27;9.63;;;-0.90;90.20;;;;;;4891430;29;20600;-77
2023/12/02 00:28:46;;;;;;;22.17;11.60;;;-1.00;90.00;;;;;;4876546;29;20183;-74
2023/12/02 00:31:12;;;;;;;19.40;11.17;;;-1.00;90.50;;;;;;4891000;29;20440;-74
2023/12/02 00:33:37;;;;;;;18.37;11.40;;;-1.00;90.70;;;;;;4897786;29;20235;-74
2023/12/02 00:36:03;;;;;;;17.93;11.23;;;-1.10;90.50;;;;;;4901508;29;20214;-75
2023/12/02 00:38:29;;;;;;;14.93;10.73;;;-1.10;90.20;;;;;;4886032;29;20184;-74
2023/12/02 00:40:55;;;;;;;17.20;10.57;;;-1.00;90.10;;;;;;4893460;29;20517;-76
2023/12/02 00:43:20;;;;;;;15.30;10.53;;;-1.00;90.30;;;;;;4874634;29;20339;-74
2023/12/02 00:45:46;;;;;;;14.63;9.50;;;-1.00;90.10;;;;;;4889657;29;20224;-74
2023/12/02 00:48:12;;;;;;;13.20;8.80;;;-1.00;89.40;;;;;;4890847;29;20485;-73
2023/12/02 00:50:37;;;;;;;17.17;9.20;;;-1.00;88.70;;;;;;4889807;29;20512;-76
2023/12/02 00:53:03;;;;;;;16.37;10.37;;;-1.00;89.10;;;;;;4891639;29;20211;-73
2023/12/02 00:55:28;;;;;;;13.93;8.10;;;-1.10;90.00;;;;;;4889710;29;20199;-72
2023/12/02 00:57:54;;;;;;;15.47;10.00;;;-1.10;90.40;;;;;;4889875;29;20176;-74
2023/12/02 01:00:20;;;;;;;13.10;9.03;;;-1.20;90.70;;;;;;4889884;29;20178;-75
2023/12/02 01:02:45;;;;;;;14.10;9.83;;;-1.10;90.70;;;;;;4888224;29;20190;-73
2023/12/02 01:05:11;;;;;;;13.97;10.07;;;-1.10;90.10;;;;;;4889138;29;20481;-73
2023/12/02 01:07:37;;;;;;;14.50;9.33;;;-1.00;89.80;;;;;;4889998;29;20202;-73
2023/12/02 01:10:03;;;;;;;14.27;9.10;;;-1.00;89.50;;;;;;4874173;29;20194;-74
2023/12/02 01:12:29;;;;;;;17.50;10.20;;;-1.00;89.70;;;;;;4889701;29;20231;-73
2023/12/02 01:14:55;;;;;;;12.43;8.60;;;-1.00;89.30;;;;;;4872657;29;20515;-75
2023/12/02 01:17:20;;;;;;;16.17;10.60;;;-1.00;89.60;;;;;;4888094;29;20192;-75
2023/12/02 01:19:46;;;;;;;14.90;9.23;;;-1.00;89.70;;;;;;4889790;29;20547;-73
2023/12/02 01:22:12;;;;;;;14.20;9.97;;;-1.00;89.30;;;;;;4888647;29;20180;-73
2023/12/02 01:24:38;;;;;;;11.90;9.30;;;-1.00;90.00;;;;;;4891270;29;20472;-74
2023/12/02 01:27:05;;;;;;;16.20;9.07;;;-1.00;90.30;;;;;;4891743;29;20416;-73
2023/12/02 01:29:30;;;;;;;14.37;9.10;;;-1.00;88.90;;;;;;4888486;29;20701;-75
2023/12/02 01:31:56;;;;;;;12.30;8.53;;;-1.10;88.90;;;;;;4888233;29;20202;-74
2023/12/02 01:34:21;;;;;;;14.83;8.40;;;-1.10;90.10;;;;;;4887000;29;20260;-75
2023/12/02 01:36:47;;;;;;;16.10;9.83;;;-1.10;90.10;;;;;;4887544;29;20561;-74
2023/12/02 01:39:14;;;;;;;13.13;8.47;;;-1.10;89.60;;;;;;4886242;29;20190;-74
2023/12/02 01:41:40;;;;;;;14.57;8.20;;;-1.20;89.80;;;;;;4887547;29;20192;-78
2023/12/02 01:44:06;;;;;;;14.33;10.10;;;-1.20;90.20;;;;;;4888600;29;20432;-72
2023/12/02 01:46:31;;;;;;;16.00;10.00;;;-1.20;90.20;;;;;;4888560;29;20702;-73
2023/12/02 01:49:00;;;;;;;14.33;9.00;;;-1.20;90.00;;;;;;4887922;29;20599;-74
2023/12/02 01:51:27;;;;;;;13.30;8.10;;;-1.20;90.20;;;;;;4889503;29;20192;-73
2023/12/02 01:53:53;;;;;;;14.00;9.50;;;-1.30;90.50;;;;;;4887730;29;20452;-75
2023/12/02 01:56:20;;;;;;;19.00;10.13;;;-1.30;90.90;;;;;;4888765;29;20450;-74
2023/12/02 01:58:47;;;;;;;15.63;9.20;;;-1.20;90.60;;;;;;4890216;29;20429;-73
2023/12/02 02:01:12;;;;;;;13.43;9.30;;;-1.20;90.70;;;;;;4891127;29;20198;-74
2023/12/02 02:03:39;;;;;;;12.90;8.97;;;-1.20;90.30;;;;;;4890838;29;20444;-74
2023/12/02 02:06:08;;;;;;;14.80;8.90;;;-1.20;90.10;;;;;;4890337;29;20510;-74
2023/12/02 02:08:33;;;;;;;16.13;10.10;;;-1.30;90.50;;;;;;4870296;29;20485;-74
2023/12/02 02:11:00;;;;;;;14.43;9.73;;;-1.30;90.70;;;;;;4886726;29;20886;-74
2023/12/02 02:13:27;;;;;;;16.03;10.57;;;-1.30;91.10;;;;;;4888432;29;20238;-73
2023/12/02 02:15:53;;;;;;;18.73;10.40;;;-1.30;91.30;;;;;;4886484;29;20448;-75
2023/12/02 02:18:19;;;;;;;14.93;10.00;;;-1.20;91.30;;;;;;4887271;29;20428;-73
2023/12/02 02:20:52;;;;;;;15.10;9.10;;;-1.20;91.20;;;;;;4885744;29;20400;-73
2023/12/02 02:23:22;;;;;;;17.93;9.60;;;-1.20;90.90;;;;;;4886790;29;20176;-73
2023/12/02 02:25:51;;;;;;;18.30;8.83;;;-1.10;91.30;;;;;;4886288;29;20573;-73
2023/12/02 02:28:27;;;;;;;15.50;9.40;;;-1.20;91.30;;;;;;4886020;29;20428;-74
2023/12/02 02:30:53;;;;;;;14.30;8.83;;;-1.20;91.70;;;;;;4886167;29;20732;-74
2023/12/02 02:33:19;;;;;;;13.03;9.30;;;-1.10;91.60;;;;;;4886607;29;20464;-72
2023/12/02 02:35:45;;;;;;;15.57;9.47;;;-1.20;91.50;;;;;;4888000;29;20436;-74
2023/12/02 02:38:11;;;;;;;13.70;9.20;;;-1.10;92.00;;;;;;4886905;29;20408;-74
2023/12/02 02:40:37;;;;;;;12.97;8.87;;;-1.20;92.30;;;;;;4887854;29;20407;-73
2023/12/02 02:43:03;;;;;;;14.40;9.30;;;-1.20;92.60;;;;;;4886016;29;20907;-72
2023/12/02 02:45:28;;;;;;;16.00;9.70;;;-1.20;92.80;;;;;;4886726;29;20438;-73
2023/12/02 02:47:54;;;;;;;14.07;9.30;;;-1.20;92.90;;;;;;4886572;29;20258;-72
2023/12/02 02:50:20;;;;;;;13.70;8.43;;;-1.10;92.70;;;;;;4887737;29;20236;-74
2023/12/02 02:52:46;;;;;;;15.50;8.87;;;-1.10;92.70;;;;;;4889845;29;20263;-75
2023/12/02 02:55:12;;;;;;;12.00;8.57;;;-1.10;93.00;;;;;;4888693;29;20242;-74
2023/12/02 02:57:38;;;;;;;12.27;7.97;;;-1.10;92.90;;;;;;4886301;29;20705;-75
2023/12/02 03:00:09;;;;;;;14.97;9.43;;;-1.10;92.90;;;;;;4887056;29;20179;-73
2023/12/02 03:02:41;;;;;;;12.80;8.17;;;-1.00;92.80;;;;;;4885301;29;20192;-73
2023/12/02 03:05:07;;;;;;;13.80;8.80;;;-1.10;92.90;;;;;;4887814;29;20444;-75
2023/12/02 03:07:33;;;;;;;14.80;8.97;;;-1.00;93.20;;;;;;4886804;29;20420;-75
2023/12/02 03:09:59;;;;;;;13.40;9.27;;;-1.00;92.80;;;;;;4888011;29;20421;-73
2023/12/02 03:12:26;;;;;;;13.87;8.97;;;-1.00;93.00;;;;;;4886367;29;20488;-72
2023/12/02 03:14:53;;;;;;;13.87;8.60;;;-1.00;92.90;;;;;;4892888;29;20429;-75
2023/12/02 03:17:18;;;;;;;16.83;9.63;;;-1.00;93.20;;;;;;4889549;29;20483;-73
2023/12/02 03:19:44;;;;;;;12.63;8.77;;;-1.00;93.30;;;;;;4885983;29;20546;-72
2023/12/02 03:22:10;;;;;;;13.10;8.83;;;-1.00;93.30;;;;;;4887464;29;20321;-74
2023/12/02 03:24:36;;;;;;;14.50;9.70;;;-1.00;93.50;;;;;;4887970;29;20168;-73
2023/12/02 03:27:02;;;;;;;14.80;9.40;;;-1.00;93.20;;;;;;4886683;29;20480;-74
2023/12/02 03:29:28;;;;;;;19.97;10.33;;;-0.90;93.20;;;;;;4890435;29;20208;-73
2023/12/02 03:31:54;;;;;;;13.77;9.43;;;-0.90;93.30;;;;;;4895421;29;20485;-73
2023/12/02 03:34:20;;;;;;;14.10;9.37;;;-0.90;93.30;;;;;;4887427;29;20491;-73
2023/12/02 03:36:45;;;;;;;16.17;9.27;;;-0.90;93.40;;;;;;4885573;29;20212;-75
2023/12/02 03:39:15;;;;;;;13.63;8.47;;;-0.90;93.40;;;;;;4887700;29;20172;-73
2023/12/02 03:41:41;;;;;;;12.63;7.97;;;-0.90;93.60;;;;;;4888461;29;20192;-73
2023/12/02 03:44:07;;;;;;;16.10;9.50;;;-0.90;93.80;;;;;;4888508;29;20409;-73
2023/12/02 03:46:35;;;;;;;14.57;8.40;;;-0.90;93.90;;;;;;4890850;29;20444;-74
2023/12/02 03:49:01;;;;;;;15.13;9.00;;;-0.90;94.00;;;;;;4890361;29;20188;-73
2023/12/02 03:51:27;;;;;;;13.60;8.70;;;-0.90;94.10;;;;;;4888346;29;20416;-74
2023/12/02 03:53:52;;;;;;;13.23;8.43;;;-0.90;94.10;;;;;;4887340;29;20219;-73
2023/12/02 03:56:20;;;;;;;12.80;8.50;;;-0.90;94.10;;;;;;4887844;29;20211;-72
2023/12/02 03:58:46;;;;;;;15.27;9.90;;;-0.90;94.30;;;;;;4889151;29;20419;-73
2023/12/02 04:01:12;;;;;;;11.77;8.77;;;-0.90;94.30;;;;;;4888716;29;20468;-73
2023/12/02 04:03:38;;;;;;;13.20;8.93;;;-0.90;94.40;;;;;;4888725;29;20405;-73
2023/12/02 04:06:05;;;;;;;16.37;10.40;;;-0.90;94.70;;;;;;4887840;29;20500;-73
2023/12/02 04:08:31;;;;;;;18.67;9.97;;;-0.90;94.70;;;;;;4889241;29;20195;-73
2023/12/02 04:10:57;;;;;;;13.53;9.33;;;-0.90;94.70;;;;;;4872034;29;20704;-73
2023/12/02 04:13:23;;;;;;;14.20;9.57;;;-0.90;94.80;;;;;;4889044;29;20562;-76
2023/12/02 04:15:48;;;;;;;18.97;10.30;;;-0.90;94.70;;;;;;4889132;29;20477;-74
2023/12/02 04:18:14;;;;;;;16.43;9.80;;;-0.80;94.70;;;;;;4871722;29;20191;-73
2023/12/02 04:20:40;;;;;;;14.30;9.33;;;-0.80;94.80;;;;;;4888461;29;20204;-74
2023/12/02 04:23:05;;;;;;;14.40;9.00;;;-0.80;94.90;;;;;;4887742;29;20204;-73
2023/12/02 04:25:31;;;;;;;14.90;10.30;;;-0.80;94.90;;;;;;4887989;29;20243;-73
2023/12/02 04:27:57;;;;;;;15.70;9.50;;;-0.80;94.90;;;;;;4889111;29;20184;-75
2023/12/02 04:30:22;;;;;;;13.63;9.10;;;-0.80;94.70;;;;;;4887336;29;20180;-74
2023/12/02 04:32:48;;;;;;;17.30;10.20;;;-0.80;94.30;;;;;;4887636;29;20612;-73
2023/12/02 04:35:14;;;;;;;13.63;8.63;;;-0.80;93.90;;;;;;4887607;29;20214;-72
2023/12/02 04:37:41;;;;;;;14.47;8.80;;;-0.70;93.40;;;;;;4886830;29;20172;-73
2023/12/02 04:40:11;;;;;;;14.27;8.57;;;-0.70;92.70;;;;;;4886558;29;20416;-72
2023/12/02 04:42:39;;;;;;;11.50;7.47;;;-0.70;92.90;;;;;;4886880;29;20443;-73
2023/12/02 04:45:06;;;;;;;16.20;9.47;;;-0.70;93.20;;;;;;4886575;29;20599;-71
2023/12/02 04:47:31;;;;;;;11.50;8.23;;;-0.70;93.00;;;;;;4887418;29;20421;-72
2023/12/02 04:49:57;;;;;;;12.07;7.87;;;-0.80;93.10;;;;;;4885626;29;20444;-72
2023/12/02 04:52:23;;;;;;;11.93;8.17;;;-0.70;92.60;;;;;;4885957;29;20222;-72
2023/12/02 04:54:49;;;;;;;13.50;8.50;;;-0.80;92.40;;;;;;4886152;29;20199;-72
2023/12/02 04:57:15;;;;;;;11.93;7.80;;;-0.70;91.90;;;;;;4885813;29;20485;-72
2023/12/02 04:59:41;;;;;;;11.97;8.03;;;-0.70;92.00;;;;;;4885652;29;20212;-73
2023/12/02 05:02:06;;;;;;;11.30;8.00;;;-0.80;92.10;;;;;;4882896;29;20499;-72
2023/12/02 05:04:32;;;;;;;11.47;7.63;;;-0.70;91.90;;;;;;4883674;29;20707;-72
2023/12/02 05:06:58;;;;;;;11.50;8.13;;;-0.70;91.30;;;;;;4882596;29;20643;-72
2023/12/02 05:09:23;;;;;;;9.23;6.37;;;-0.50;90.90;;;;;;4883737;29;20195;-72
2023/12/02 05:11:49;;;;;;;12.77;8.03;;;-0.60;90.70;;;;;;4883838;29;20203;-72
2023/12/02 05:14:14;;;;;;;12.33;7.90;;;-0.60;91.20;;;;;;4883416;29;20496;-73
2023/12/02 05:16:43;;;;;;;11.10;7.53;;;-0.60;91.30;;;;;;4883484;29;20290;-74
2023/12/02 05:19:09;;;;;;;10.40;7.40;;;-0.60;91.20;;;;;;4883560;29;20203;-73
2023/12/02 05:21:37;;;;;;;13.27;7.33;;;-0.70;91.50;;;;;;4883517;29;20452;-72
2023/12/02 05:24:03;;;;;;;11.80;7.10;;;-0.70;91.80;;;;;;4885660;29;20428;-75
2023/12/02 05:26:29;;;;;;;12.10;8.20;;;-0.70;92.10;;;;;;4886193;29;20491;-72
2023/12/02 05:28:55;;;;;;;10.10;7.40;;;-0.70;92.00;;;;;;4886632;29;20187;-73
2023/12/02 05:31:21;;;;;;;13.50;8.20;;;-0.70;92.00;;;;;;4889769;29;20191;-74
2023/12/02 05:33:47;;;;;;;15.77;8.77;;;-0.70;91.70;;;;;;4886283;29;20219;-75
2023/12/02 05:36:13;;;;;;;19.80;9.17;;;-0.70;91.40;;;;;;4887782;29;20449;-73
2023/12/02 05:38:38;;;;;;;12.50;8.73;;;-0.60;91.70;;;;;;4887208;29;20180;-73
2023/12/02 05:41:05;;;;;;;14.00;8.90;;;-0.60;91.00;;;;;;4886803;29;20857;-72
2023/12/02 05:43:31;;;;;;;13.47;9.57;;;-0.50;91.20;;;;;;4886200;29;20219;-76
2023/12/02 05:45:56;;;;;;;11.00;7.30;;;-0.60;91.10;;;;;;4885576;29;20857;-73
2023/12/02 05:48:22;;;;;;;10.73;7.73;;;-0.60;91.40;;;;;;4886064;29;20495;-73
2023/12/02 05:50:48;;;;;;;13.23;9.00;;;-0.60;91.20;;;;;;4886796;29;20184;-74
2023/12/02 05:53:13;;;;;;;12.17;7.87;;;-0.60;91.30;;;;;;4886409;29;20259;-72
2023/12/02 05:55:39;;;;;;;12.33;8.43;;;-0.60;91.10;;;;;;4886680;29;20211;-74
2023/12/02 05:58:05;;;;;;;14.20;8.90;;;-0.60;91.30;;;;;;4885644;29;20227;-73
2023/12/02 06:00:30;;;;;;;13.87;9.20;;;-0.60;91.60;;;;;;4886574;29;20172;-74
2023/12/02 06:02:56;;;;;;;10.77;8.20;;;-0.70;91.90;;;;;;4887513;29;20613;-73
2023/12/02 06:05:21;;;;;;;15.60;10.43;;;-0.70;92.20;;;;;;4885785;29;20620;-73
2023/12/02 06:07:47;;;;;;;13.03;8.87;;;-0.60;92.10;;;;;;4886497;29;20199;-73
2023/12/02 06:10:14;;;;;;;14.33;9.63;;;-0.70;92.10;;;;;;4885867;29;20295;-75
2023/12/02 06:12:39;;;;;;;11.83;8.40;;;-0.60;92.90;;;;;;4884994;29;20940;-73
2023/12/02 06:15:06;;;;;;;15.93;9.73;;;-0.70;92.80;;;;;;4885740;29;20238;-74
2023/12/02 06:17:32;;;;;;;14.80;9.67;;;-0.60;92.60;;;;;;4886665;29;20184;-73
2023/12/02 06:19:58;;;;;;;14.47;9.00;;;-0.50;92.20;;;;;;4888191;29;20456;-74
2023/12/02 06:22:24;;;;;;;14.57;9.57;;;-0.50;91.90;;;;;;4889809;29;20503;-73
2023/12/02 06:24:50;;;;;;;18.40;9.43;;;-0.60;91.70;;;;;;4886710;29;20622;-74
2023/12/02 06:27:15;;;;;;;14.87;9.13;;;-0.60;91.80;;;;;;4888294;29;20200;-74
2023/12/02 06:29:41;;;;;;;15.00;8.50;;;-0.70;92.00;;;;;;4886063;29;20412;-75
2023/12/02 06:32:06;;;;;;;11.90;8.10;;;-0.70;92.20;;;;;;4886949;29;20175;-73
2023/12/02 06:34:32;;;;;;;14.03;8.77;;;-0.70;92.30;;;;;;4889540;29;20640;-74
2023/12/02 06:36:58;;;;;;;12.97;8.83;;;-0.70;92.00;;;;;;4890398;29;20424;-73
2023/12/02 06:39:24;;;;;;;14.30;9.80;;;-0.70;91.60;;;;;;4890134;29;20239;-73
2023/12/02 06:41:49;;;;;;;14.67;9.90;;;-0.70;91.30;;;;;;4889469;29;20452;-73
2023/12/02 06:44:17;;;;;;;17.43;10.13;;;-0.70;91.40;;;;;;4890823;29;20279;-74
2023/12/02 06:46:43;;;;;;;15.33;9.60;;;-0.70;91.70;;;;;;4885968;29;20200;-74
2023/12/02 06:49:09;;;;;;;14.40;10.50;;;-0.70;91.90;;;;;;4887046;29;20436;-74
2023/12/02 06:51:34;;;;;;;16.57;10.40;;;-0.60;91.70;;;;;;4887429;29;20188;-74
2023/12/02 06:54:00;;;;;;;14.60;9.93;;;-0.70;91.90;;;;;;4890798;29;20254;-73
2023/12/02 06:56:26;;;;;;;17.00;10.63;;;-0.70;92.10;;;;;;4888327;29;20286;-73
2023/12/02 06:58:53;;;;;;;15.07;9.77;;;-0.70;92.90;;;;;;4885379;29;20215;-74
2023/12/02 07:01:26;;;;;;;14.13;9.30;;;-0.80;92.80;;;;;;4886893;29;20421;-74
2023/12/02 07:03:53;;;;;;;15.13;10.70;;;-0.80;92.90;;;;;;4887015;29;20432;-72
2023/12/02 07:06:20;;;;;;;17.13;10.33;;;-0.80;93.10;;;;;;4886346;29;20468;-72
2023/12/02 07:08:47;;;;;;;17.77;11.20;;;-0.80;93.00;;;;;;4884727;29;20420;-73
2023/12/02 07:11:12;;;;;;;19.23;11.57;;;-0.80;93.00;;;;;;4886448;29;20512;-74
2023/12/02 07:13:38;;;;;;;14.23;9.20;;;-0.80;93.00;;;;;;4890798;29;20472;-77
2023/12/02 07:16:04;;;;;;;15.60;10.27;;;-0.90;93.00;;;;;;4891967;29;20208;-75
2023/12/02 07:18:30;;;;;;;16.87;9.67;;;-0.90;93.00;;;;;;4890377;29;20501;-74
2023/12/02 07:20:55;;;;;;;16.73;10.07;;;-0.80;93.10;;;;;;4890652;29;20411;-75
2023/12/02 07:23:21;;;;;;;16.60;10.80;;;-0.80;93.20;;;;;;4889186;29;20226;-74
2023/12/02 07:25:47;;;;;;;14.77;9.93;;;-0.80;92.80;;;;;;4889628;29;20282;-73
2023/12/02 07:28:12;;;;;;;16.47;9.90;;;-0.80;92.90;;;;;;4887335;29;20184;-74
2023/12/02 07:30:38;;;;;;;16.30;10.97;;;-0.80;93.10;;;;;;4889806;29;20199;-74
2023/12/02 07:33:03;;;;;;;15.53;10.13;;;-0.80;92.60;;;;;;4889867;29;20211;-74
2023/12/02 07:35:29;;;;;;;15.33;9.10;;;-0.80;92.10;;;;;;4873129;29;20216;-74
2023/12/02 07:37:55;;;;;;;17.63;11.23;;;-0.90;92.00;;;;;;4890003;29;20230;-73
2023/12/02 07:40:20;;;;;;;18.67;11.00;;;-0.90;92.00;;;;;;4889170;29;20580;-76
2023/12/02 07:42:46;;;;;;;17.60;10.70;;;-0.90;92.10;;;;;;4890932;29;20247;-75
2023/12/02 07:45:11;;;;;;;16.73;10.67;;;-0.80;91.80;;;;;;4890762;29;20216;-73
2023/12/02 07:47:37;;;;;;;16.63;11.33;;;-0.80;91.60;;;;;;4891311;29;20195;-73
2023/12/02 07:50:03;;;;;;;16.20;10.10;;;-0.80;91.60;;;;;;4890948;29;20180;-74
2023/12/02 07:52:28;;;;;;;14.87;9.50;;;-0.70;91.20;;;;;;4889670;29;20275;-73
2023/12/02 07:54:54;;;;;;;17.40;9.93;;;-0.70;90.80;;;;;;4889976;29;20200;-73
2023/12/02 07:57:20;;;;;;;20.70;9.57;;;-0.70;91.00;;;;;;4889320;29;20192;-75
2023/12/02 07:59:45;;;;;;;16.63;10.10;;;-0.80;91.10;;;;;;4891942;29;20279;-76
2023/12/02 08:02:11;;;;;;;16.60;10.27;;;-0.80;90.90;;;;;;4858691;29;20191;-74
2023/12/02 08:04:37;;;;;;;14.97;8.37;;;-0.70;90.40;;;;;;4892845;29;20266;-73
2023/12/02 08:07:03;;;;;;;15.33;10.00;;;-0.70;90.60;;;;;;4891797;29;20768;-74
2023/12/02 08:09:28;;;;;;;18.00;10.60;;;-0.80;90.40;;;;;;4893219;29;20183;-77
2023/12/02 08:11:54;;;;;;;19.27;10.20;;;-0.70;90.30;;;;;;4891742;29;20275;-73
2023/12/02 08:14:20;;;;;;;16.83;10.63;;;-0.80;90.00;;;;;;4890253;29;20299;-75
2023/12/02 08:16:45;;;;;;;15.33;9.60;;;-0.80;90.20;;;;;;4889621;29;20208;-75
2023/12/02 08:19:11;;;;;;;17.63;10.40;;;-0.80;90.60;;;;;;4888802;29;20179;-76
2023/12/02 08:21:36;;;;;;;21.27;11.93;;;-0.80;90.70;;;;;;4876062;29;20596;-74
2023/12/02 08:24:02;;;;;;;16.23;9.80;;;-0.70;90.70;;;;;;4890220;29;20239;-75
2023/12/02 08:26:28;;;;;;;22.70;11.47;;;-0.70;90.50;;;;;;4890261;29;20286;-73
2023/12/02 08:28:53;;;;;;;16.57;9.90;;;-0.70;90.40;;;;;;4887920;29;20324;-74
2023/12/02 08:31:19;;;;;;;15.40;10.27;;;-0.70;90.50;;;;;;4888788;29;20180;-75
2023/12/02 08:33:45;;;;;;;21.50;10.80;;;-0.70;90.40;;;;;;4889117;29;20211;-73
2023/12/02 08:36:11;;;;;;;16.87;10.50;;;-0.70;90.10;;;;;;4889305;29;20218;-74
2023/12/02 08:38:37;;;;;;;17.67;9.40;;;-0.60;89.70;;;;;;4873422;29;20698;-74
2023/12/02 08:41:03;;;;;;;18.43;10.80;;;-0.60;90.10;;;;;;4889854;29;20416;-73
2023/12/02 08:43:29;;;;;;;15.33;9.43;;;-0.60;90.10;;;;;;4894922;29;20188;-73
2023/12/02 08:45:55;;;;;;;20.27;11.10;;;-0.50;90.10;;;;;;4891265;29;20204;-74
2023/12/02 08:48:20;;;;;;;16.97;10.03;;;-0.50;88.10;;;;;;4888474;29;20431;-74
2023/12/02 08:50:46;;;;;;;18.90;11.23;;;-0.50;87.70;;;;;;4889748;29;20183;-74
2023/12/02 08:53:11;;;;;;;14.70;8.77;;;-0.50;87.70;;;;;;4890374;29;20203;-75
2023/12/02 08:55:37;;;;;;;15.07;10.30;;;-0.50;87.50;;;;;;4892211;29;20268;-75
2023/12/02 08:58:03;;;;;;;20.00;11.50;;;-0.40;87.80;;;;;;4893524;29;20196;-73
2023/12/02 09:00:30;;;;;;;21.93;11.77;;;-0.30;86.20;;;;;;4890363;29;20216;-74
2023/12/02 09:02:56;;;;;;;18.50;10.70;;;-0.30;85.50;;;;;;4891406;29;20255;-74
2023/12/02 09:05:22;;;;;;;17.53;10.17;;;-0.30;86.10;;;;;;4889498;29;20542;-73
2023/12/02 09:07:47;;;;;;;19.53;12.40;;;-0.30;86.50;;;;;;4890629;29;20188;-74
2023/12/02 09:10:13;;;;;;;20.00;12.23;;;-0.20;86.50;;;;;;4889988;29;20218;-75
2023/12/02 09:12:39;;;;;;;21.87;11.47;;;-0.20;85.80;;;;;;4890943;29;20771;-75
2023/12/02 09:15:14;;;;;;;22.17;11.67;;;-0.30;85.10;;;;;;4891942;29;20463;-76
2023/12/02 09:17:49;;;;;;;23.87;13.03;;;-0.30;85.90;;;;;;4891202;29;20431;-74
2023/12/02 09:20:35;;;;;;;23.33;12.43;;;-0.30;86.20;;;;;;4889008;29;20424;-75
2023/12/02 09:23:01;;;;;;;18.60;11.80;;;-0.20;86.80;;;;;;4888315;29;20425;-73
2023/12/02 09:25:28;;;;;;;19.30;10.73;;;-0.20;87.20;;;;;;4889034;29;20729;-76
2023/12/02 09:28:07;;;;;;;22.20;11.97;;;-0.10;87.20;;;;;;4889380;29;20825;-74
2023/12/02 09:30:44;;;;;;;20.43;13.80;;;0.00;87.20;;;;;;4889039;29;20880;-75
2023/12/02 09:33:10;;;;;;;20.43;12.30;;;0.00;86.40;;;;;;4890790;29;20896;-74
2023/12/02 09:35:36;;;;;;;19.70;11.30;;;0.10;86.60;;;;;;4889446;29;20444;-74
2023/12/02 09:38:03;;;;;;;21.20;12.00;;;0.10;86.70;;;;;;4890618;29;20184;-76
2023/12/02 09:40:52;;;;;;;23.60;13.17;;;0.20;86.20;;;;;;4890557;29;20535;-74
2023/12/02 09:43:25;;;;;;;17.73;10.17;;;0.20;85.10;;;;;;4891325;29;20443;-75
2023/12/02 09:46:14;;;;;;;15.97;10.70;;;0.20;84.90;;;;;;4890633;29;20884;-75
2023/12/02 09:49:02;;;;;;;20.53;11.50;;;0.30;85.10;;;;;;4891438;29;20537;-75
2023/12/02 09:51:52;;;;;;;18.40;11.50;;;0.30;84.30;;;;;;4890582;29;20413;-74
2023/12/02 09:54:37;;;;;;;17.83;11.30;;;0.30;83.30;;;;;;4889240;29;20472;-76
2023/12/02 09:57:16;;;;;;;17.67;11.30;;;0.40;83.80;;;;;;4892650;29;20416;-77
2023/12/02 10:00:09;;;;;;;17.60;10.60;;;0.40;82.40;;;;;;4876444;29;20425;-75
2023/12/02 10:03:03;;;;;;;16.10;9.50;;;0.40;81.80;;;;;;4891244;29;20424;-76
2023/12/02 10:05:37;;;;;;;21.10;11.30;;;0.40;82.10;;;;;;4892222;29;20468;-75
2023/12/02 10:08:11;;;;;;;18.33;10.00;;;0.50;80.20;;;;;;4893423;29;20423;-78
2023/12/02 10:10:58;;;;;;;17.73;10.97;;;0.40;79.80;;;;;;4893132;29;20420;-76
2023/12/02 10:13:36;;;;;;;22.50;10.93;;;0.50;80.10;;;;;;4892333;29;20472;-75
2023/12/02 10:16:10;;;;;;;15.23;12.00;;;0.50;80.50;;;;;;4892369;29;20433;-76
2023/12/02 10:18:39;;;;;;;15.80;10.00;;;0.60;81.00;;;;;;4892804;29;20713;-77
2023/12/02 10:21:10;;;;;;;16.43;9.60;;;0.60;80.00;;;;;;4894299;29;20405;-76
2023/12/02 10:23:54;;;;;;;18.83;11.70;;;0.70;80.60;;;;;;4892963;29;20437;-76
2023/12/02 10:26:35;;;;;;;16.00;9.83;;;0.80;77.60;;;;;;4890934;29;20440;-75
2023/12/02 10:29:23;;;;;;;17.70;9.93;;;0.90;78.40;;;;;;4893730;29;20421;-76
2023/12/02 10:32:16;;;;;;;15.33;10.33;;;0.80;78.30;;;;;;4894561;29;20420;-74
2023/12/02 10:35:09;;;;;;;18.70;10.33;;;0.90;78.60;;;;;;4892324;29;20460;-75
2023/12/02 10:37:39;;;;;;;21.93;12.40;;;0.90;77.70;;;;;;4876878;29;20492;-76
2023/12/02 10:40:09;;;;;;;19.23;12.40;;;0.80;78.10;;;;;;4879620;29;20408;-75
2023/12/02 10:42:43;;;;;;;17.40;10.80;;;0.90;77.40;;;;;;4892561;29;20428;-76
2023/12/02 10:45:11;;;;;;;20.60;12.23;;;0.70;77.00;;;;;;4890354;29;20444;-75
2023/12/02 10:47:37;;;;;;;17.60;10.43;;;0.70;77.40;;;;;;4891965;29;20425;-75
2023/12/02 10:50:05;;;;;;;21.00;11.57;;;0.70;78.40;;;;;;4879370;29;20428;-77
2023/12/02 10:52:32;;;;;;;18.83;10.50;;;0.70;79.00;;;;;;4897410;29;20424;-75
2023/12/02 10:55:01;;;;;;;17.10;10.80;;;0.70;79.50;;;;;;4897212;29;20440;-75
2023/12/02 10:57:27;;;;;;;17.57;12.47;;;0.70;79.00;;;;;;4897731;29;20503;-77
2023/12/02 11:00:11;;;;;;;15.70;10.90;;;0.80;78.20;;;;;;4894590;29;20776;-77
2023/12/02 11:02:57;;;;;;;15.23;9.13;;;0.80;77.30;;;;;;4897473;29;20440;-77
2023/12/02 11:05:26;;;;;;;16.77;10.73;;;0.70;78.00;;;;;;4895936;29;20512;-76
2023/12/02 11:07:59;;;;;;;23.03;10.47;;;0.70;79.10;;;;;;4897214;29;20459;-76
2023/12/02 11:10:51;;;;;;;22.10;14.03;;;0.70;79.50;;;;;;4895983;29;20428;-77
2023/12/02 11:13:23;;;;;;;20.00;11.53;;;0.90;78.90;;;;;;4882120;29;20977;-76
2023/12/02 11:16:08;;;;;;;15.20;10.70;;;0.90;79.20;;;;;;4896766;29;20451;-78
2023/12/02 11:19:10;;;;;;;15.97;9.73;;;0.90;79.00;;;;;;4882879;29;20428;-76
2023/12/02 11:22:18;;;;;;;20.67;10.37;;;0.90;78.90;;;;;;4900681;29;20444;-77
2023/12/02 11:24:56;;;;;;;21.10;10.73;;;0.80;78.50;;;;;;4897127;29;20455;-75
2023/12/02 11:28:03;;;;;;;18.67;11.30;;;0.90;78.20;;;;;;4894910;29;20431;-76
2023/12/02 11:30:54;;;;;;;17.53;10.80;;;0.90;78.90;;;;;;4895395;29;20491;-79
2023/12/02 11:33:28;;;;;;;16.07;9.80;;;1.00;78.20;;;;;;4893712;29;20444;-75
2023/12/02 11:36:27;;;;;;;14.67;9.97;;;1.00;78.70;;;;;;4904282;29;20447;-78
2023/12/02 11:39:03;;;;;;;14.30;8.60;;;1.00;78.10;;;;;;4878227;29;20455;-75
2023/12/02 11:41:53;;;;;;;20.53;11.30;;;1.00;78.80;;;;;;4893820;29;20431;-77
2023/12/02 11:44:43;;;;;;;17.33;10.43;;;1.00;78.30;;;;;;4895634;29;20527;-77
2023/12/02 11:47:29;;;;;;;15.57;9.53;;;0.90;78.00;;;;;;4877256;29;20421;-75
2023/12/02 11:50:29;;;;;;;16.63;9.80;;;0.80;77.90;;;;;;4877219;29;20470;-78
2023/12/02 11:53:36;;;;;;;11.17;7.97;;;0.70;78.70;;;;;;4895322;29;20459;-79
2023/12/02 11:56:22;;;;;;;15.63;10.90;;;0.80;79.60;;;;;;4852900;29;20448;-77
2023/12/02 11:58:58;;;;;;;13.43;8.40;;;0.80;78.10;;;;;;4876458;29;20431;-78
2023/12/02 12:01:38;;;;;;;19.83;9.53;;;0.90;78.70;;;;;;4892667;29;20713;-76
2023/12/02 12:04:41;;;;;;;14.00;8.93;;;0.90;78.60;;;;;;4892992;29;20485;-78
2023/12/02 12:07:46;;;;;;;16.83;10.23;;;0.90;78.50;;;;;;4878257;29;20563;-75
2023/12/02 12:10:35;;;;;;;16.50;9.50;;;1.00;78.10;;;;;;4894859;29;20416;-76
2023/12/02 12:13:02;;;;;;;16.77;10.60;;;0.90;77.50;;;;;;4893082;29;20536;-75
2023/12/02 12:15:28;;;;;;;13.60;8.70;;;0.80;77.70;;;;;;4870873;29;20436;-77
2023/12/02 12:17:54;;;;;;;12.47;8.70;;;0.80;78.70;;;;;;4892932;29;20476;-76
2023/12/02 12:20:21;;;;;;;20.40;12.83;;;0.90;79.40;;;;;;4894577;29;20211;-76
2023/12/02 12:22:46;;;;;;;14.30;9.20;;;1.00;79.30;;;;;;4878101;29;20436;-77
2023/12/02 12:25:13;;;;;;;14.90;10.50;;;1.00;79.10;;;;;;4894092;29;20447;-78
2023/12/02 12:27:39;;;;;;;16.40;10.53;;;1.00;79.10;;;;;;4896497;29;20421;-76
2023/12/02 12:30:06;;;;;;;18.00;12.10;;;1.10;80.20;;;;;;4894194;29;20444;-77
2023/12/02 12:32:32;;;;;;;19.10;13.30;;;1.20;79.70;;;;;;4895153;29;20495;-78
2023/12/02 12:34:57;;;;;;;19.23;11.83;;;1.10;79.60;;;;;;4878984;29;20556;-77
2023/12/02 12:37:23;;;;;;;19.57;13.87;;;1.10;80.20;;;;;;4895762;29;20172;-80
2023/12/02 12:39:50;;;;;;;18.27;12.60;;;1.00;79.50;;;;;;4880407;29;20184;-78
2023/12/02 12:42:22;;;;;;;15.87;11.67;;;0.90;80.10;;;;;;4897046;29;20531;-76
2023/12/02 12:44:47;;;;;;;15.07;9.50;;;0.80;80.50;;;;;;4896396;29;20448;-78
2023/12/02 12:47:14;;;;;;;17.60;11.67;;;0.70;80.90;;;;;;4897057;29;20413;-78